Time;durP1;ratioP1;P1;durP2;ratioP2;P2;SDS_P1;SDS_P2;PMS_P1;PMS_P2;Temp;Humidity;BMP_temperature;BMP_pressure;BME280_temperature;BME280_humidity;BME280_pressure;Samples;Min_cycle;Max_cycle;Signal;HPM_P1;HPM_P2
2021/03/22 00:01:42;;;;;;;3.38;1.67;;;8.80;70.90;;;;;;5040962;28;20033;-82
2021/03/22 00:04:08;;;;;;;3.83;1.77;;;8.80;70.90;;;;;;5042024;28;20488;-81
2021/03/22 00:06:34;;;;;;;2.95;1.63;;;8.80;71.00;;;;;;5030921;28;20040;-81
2021/03/22 00:09:00;;;;;;;3.20;1.70;;;8.80;71.00;;;;;;5052826;28;20381;-81
2021/03/22 00:11:26;;;;;;;3.03;1.55;;;8.70;70.90;;;;;;5038095;28;20029;-81
2021/03/22 00:13:51;;;;;;;2.40;1.50;;;8.70;70.90;;;;;;5038210;28;20032;-81
2021/03/22 00:16:18;;;;;;;3.75;1.70;;;8.70;70.90;;;;;;5067469;28;20052;-81
2021/03/22 00:18:44;;;;;;;3.95;1.40;;;8.70;71.00;;;;;;5036702;28;20128;-81
2021/03/22 00:21:14;;;;;;;3.72;1.70;;;8.60;71.00;;;;;;5052331;28;20519;-81
2021/03/22 00:23:40;;;;;;;3.95;1.83;;;8.60;71.00;;;;;;5054473;28;20032;-81
2021/03/22 00:26:07;;;;;;;3.47;1.75;;;8.60;71.00;;;;;;5036104;28;20392;-81
2021/03/22 00:28:38;;;;;;;4.10;1.73;;;8.60;71.00;;;;;;5054720;28;20123;-80
2021/03/22 00:31:15;;;;;;;5.30;2.00;;;8.50;71.00;;;;;;5048937;28;20028;-81
2021/03/22 00:33:42;;;;;;;3.80;1.73;;;8.50;71.10;;;;;;5043645;28;20063;-81
2021/03/22 00:36:09;;;;;;;2.70;1.67;;;8.50;71.10;;;;;;5044017;28;20040;-81
2021/03/22 00:38:35;;;;;;;4.00;1.70;;;8.40;71.10;;;;;;5051821;28;20029;-81
2021/03/22 00:41:02;;;;;;;2.78;1.60;;;8.40;71.10;;;;;;5057453;28;20083;-81
2021/03/22 00:43:27;;;;;;;2.20;1.40;;;8.40;71.20;;;;;;5071109;28;20028;-81
2021/03/22 00:45:56;;;;;;;4.55;1.70;;;8.40;71.20;;;;;;5065976;28;20025;-81
2021/03/22 00:48:23;;;;;;;2.35;1.48;;;8.40;71.20;;;;;;5049889;28;20021;-81
2021/03/22 00:50:49;;;;;;;5.28;1.63;;;8.40;71.20;;;;;;5056287;28;20032;-81
2021/03/22 00:53:16;;;;;;;3.40;1.92;;;8.30;71.20;;;;;;5054418;28;20181;-81
2021/03/22 00:55:43;;;;;;;3.42;1.70;;;8.30;71.20;;;;;;5050937;28;20025;-81
2021/03/22 00:58:09;;;;;;;4.43;1.70;;;8.30;71.20;;;;;;5052223;28;20021;-81
2021/03/22 01:00:47;;;;;;;2.88;1.60;;;8.30;71.20;;;;;;5053968;28;20036;-81
2021/03/22 01:03:19;;;;;;;2.10;1.42;;;8.30;71.30;;;;;;5071270;28;20515;-81
2021/03/22 01:05:44;;;;;;;2.28;1.70;;;8.30;71.20;;;;;;5054235;28;20029;-80
2021/03/22 01:08:11;;;;;;;3.97;1.60;;;8.20;71.20;;;;;;5071046;28;20025;-81
2021/03/22 01:10:37;;;;;;;2.42;1.80;;;8.20;71.20;;;;;;5062080;28;20043;-81
2021/03/22 01:13:07;;;;;;;3.70;2.00;;;8.20;71.20;;;;;;5053628;28;20123;-81
2021/03/22 01:15:32;;;;;;;2.53;1.55;;;8.20;71.30;;;;;;5054193;28;20487;-81
2021/03/22 01:17:58;;;;;;;4.40;1.67;;;8.20;71.30;;;;;;5017084;28;20045;-81
2021/03/22 01:20:31;;;;;;;3.72;1.83;;;8.10;71.20;;;;;;5051093;28;20377;-81
2021/03/22 01:22:57;;;;;;;3.65;1.80;;;8.10;71.30;;;;;;5064231;28;20034;-81
2021/03/22 01:25:23;;;;;;;3.55;1.80;;;8.10;71.20;;;;;;5048405;28;20119;-81
2021/03/22 01:27:49;;;;;;;3.45;1.75;;;8.00;71.20;;;;;;5050677;28;20022;-81
2021/03/22 01:30:26;;;;;;;2.42;1.60;;;8.10;71.30;;;;;;5060919;28;20511;-81
2021/03/22 01:32:52;;;;;;;3.20;2.03;;;8.00;71.30;;;;;;5053515;28;20048;-82
2021/03/22 01:35:18;;;;;;;3.22;1.73;;;8.00;71.30;;;;;;5066934;28;20040;-82
2021/03/22 01:37:44;;;;;;;2.75;1.63;;;8.00;71.30;;;;;;5052915;28;20413;-81
2021/03/22 01:40:28;;;;;;;4.15;1.90;;;8.00;71.30;;;;;;5054634;28;20035;-81
2021/03/22 01:43:07;;;;;;;2.57;1.80;;;8.00;71.40;;;;;;5052497;28;20363;-81
2021/03/22 01:45:33;;;;;;;3.65;2.05;;;7.90;71.30;;;;;;5070987;28;20111;-81
2021/03/22 01:48:00;;;;;;;5.07;2.22;;;7.90;71.30;;;;;;5043157;28;20182;-81
2021/03/22 01:50:29;;;;;;;2.65;1.85;;;7.90;71.40;;;;;;5051571;28;20049;-81
2021/03/22 01:52:56;;;;;;;2.63;1.60;;;7.90;71.40;;;;;;5053846;28;20415;-81
2021/03/22 01:55:24;;;;;;;3.78;1.80;;;7.90;71.40;;;;;;5070850;28;20104;-80
2021/03/22 01:57:50;;;;;;;2.97;2.00;;;7.80;71.40;;;;;;5044992;28;20091;-81
2021/03/22 02:00:34;;;;;;;2.72;1.70;;;7.80;71.50;;;;;;5047508;28;20040;-81
2021/03/22 02:03:08;;;;;;;2.10;1.88;;;7.80;71.60;;;;;;5050428;28;20025;-80
2021/03/22 02:05:36;;;;;;;3.53;1.90;;;7.80;71.50;;;;;;5040130;28;20032;-81
2021/03/22 02:08:05;;;;;;;5.07;2.00;;;7.80;71.50;;;;;;5060870;28;20017;-81
2021/03/22 02:10:32;;;;;;;3.75;1.85;;;7.80;71.50;;;;;;5056705;28;20146;-81
2021/03/22 02:12:58;;;;;;;4.38;1.85;;;7.80;71.50;;;;;;5054073;28;20021;-81
2021/03/22 02:15:24;;;;;;;2.97;1.77;;;7.70;71.50;;;;;;5068274;28;20033;-80
2021/03/22 02:18:28;;;;;;;3.85;2.30;;;7.70;71.60;;;;;;5063125;28;20044;-80
2021/03/22 02:21:35;;;;;;;4.20;2.08;;;7.70;71.70;;;;;;5043847;28;20037;-80
2021/03/22 02:24:28;;;;;;;3.08;1.90;;;7.70;71.60;;;;;;4984180;28;20530;-80
2021/03/22 02:27:22;;;;;;;3.33;2.00;;;7.60;71.60;;;;;;5050865;28;20393;-81
2021/03/22 02:30:10;;;;;;;2.38;1.80;;;7.60;71.70;;;;;;5057734;28;20587;-81
2021/03/22 02:33:01;;;;;;;3.78;2.05;;;7.60;71.60;;;;;;5056748;28;20043;-81
2021/03/22 02:35:32;;;;;;;2.03;1.55;;;7.50;71.70;;;;;;5071869;28;20033;-80
2021/03/22 02:38:22;;;;;;;2.40;1.67;;;7.50;71.70;;;;;;5073205;28;20063;-80
2021/03/22 02:40:58;;;;;;;3.50;2.13;;;7.50;71.80;;;;;;5073542;28;20063;-80
2021/03/22 02:43:24;;;;;;;3.80;1.98;;;7.50;71.70;;;;;;5067867;28;20036;-80
2021/03/22 02:45:54;;;;;;;3.83;2.20;;;7.50;71.70;;;;;;5053248;28;20033;-79
2021/03/22 02:48:23;;;;;;;3.20;2.00;;;7.40;71.70;;;;;;5065554;28;20528;-80
2021/03/22 02:51:23;;;;;;;4.75;2.28;;;7.40;71.70;;;;;;5053608;28;20124;-80
2021/03/22 02:54:09;;;;;;;4.10;2.20;;;7.40;71.80;;;;;;5035884;28;20036;-81
2021/03/22 02:56:46;;;;;;;4.20;2.17;;;7.40;71.80;;;;;;5053826;28;20534;-80
2021/03/22 02:59:19;;;;;;;3.38;2.00;;;7.40;71.80;;;;;;5064904;28;20026;-80
2021/03/22 03:01:58;;;;;;;4.63;2.10;;;7.40;71.90;;;;;;5072182;28;20029;-80
2021/03/22 03:04:24;;;;;;;3.55;1.88;;;7.40;71.90;;;;;;5056570;28;20035;-80
2021/03/22 03:06:49;;;;;;;3.63;2.25;;;7.40;71.90;;;;;;5053660;28;20033;-81
2021/03/22 03:09:18;;;;;;;3.78;2.33;;;7.30;71.80;;;;;;5056482;28;20020;-80
2021/03/22 03:11:45;;;;;;;2.90;2.00;;;7.30;71.90;;;;;;5056384;28;20036;-80
2021/03/22 03:14:11;;;;;;;3.60;2.15;;;7.30;72.00;;;;;;5060992;28;20115;-80
2021/03/22 03:16:37;;;;;;;4.05;2.35;;;7.30;71.90;;;;;;5009899;28;20053;-80
2021/03/22 03:19:03;;;;;;;3.22;1.92;;;7.30;72.00;;;;;;5050066;28;20483;-80
2021/03/22 03:21:29;;;;;;;3.60;2.15;;;7.30;72.00;;;;;;5056702;28;20087;-80
2021/03/22 03:23:54;;;;;;;4.55;2.30;;;7.30;72.00;;;;;;5036578;28;20025;-81
2021/03/22 03:26:21;;;;;;;3.72;1.92;;;7.30;72.00;;;;;;5038535;28;20029;-80
2021/03/22 03:28:47;;;;;;;4.18;2.30;;;7.30;72.00;;;;;;5043635;28;20024;-82
2021/03/22 03:31:12;;;;;;;4.50;2.15;;;7.30;72.00;;;;;;5058965;28;20060;-80
2021/03/22 03:33:38;;;;;;;2.80;1.92;;;7.30;72.00;;;;;;5038916;28;20036;-80
2021/03/22 03:36:04;;;;;;;4.18;2.08;;;7.30;72.10;;;;;;5064871;28;20032;-80
2021/03/22 03:38:30;;;;;;;3.67;2.28;;;7.30;72.10;;;;;;5038275;28;20048;-80
2021/03/22 03:40:56;;;;;;;4.22;2.60;;;7.30;72.10;;;;;;5029500;28;20067;-80
2021/03/22 03:43:22;;;;;;;4.50;2.22;;;7.30;72.10;;;;;;5070480;28;20024;-80
2021/03/22 03:45:51;;;;;;;2.97;2.08;;;7.30;72.10;;;;;;5047063;28;20057;-80
2021/03/22 03:48:23;;;;;;;4.45;2.33;;;7.30;72.20;;;;;;5055226;28;20024;-81
2021/03/22 03:50:52;;;;;;;4.38;2.17;;;7.30;72.20;;;;;;5054230;28;20495;-82
2021/03/22 03:53:17;;;;;;;4.97;2.58;;;7.30;72.20;;;;;;5072193;28;20032;-80
2021/03/22 03:55:43;;;;;;;3.17;2.40;;;7.30;72.90;;;;;;5059548;28;20384;-80
2021/03/22 03:58:09;;;;;;;4.70;2.20;;;7.30;72.20;;;;;;5037746;28;20114;-81
2021/03/22 04:00:38;;;;;;;4.45;2.60;;;7.30;72.20;;;;;;5054843;28;20465;-80
2021/03/22 04:03:24;;;;;;;3.72;2.17;;;7.30;72.30;;;;;;5054502;28;20020;-81
2021/03/22 04:05:53;;;;;;;;;;;7.30;72.40;;;;;;5066007;28;20047;-82
2021/03/22 04:08:19;;;;;;;4.72;2.45;;;7.30;72.20;;;;;;5054594;28;19909;-81
2021/03/22 04:10:45;;;;;;;4.10;2.42;;;7.30;72.10;;;;;;5055007;28;20056;-81
2021/03/22 04:13:11;;;;;;;5.25;2.80;;;7.30;72.30;;;;;;5054406;28;20032;-80
2021/03/22 04:15:36;;;;;;;3.13;2.03;;;7.30;72.40;;;;;;5041445;28;20108;-81
2021/03/22 04:18:02;;;;;;;3.58;2.60;;;7.30;72.40;;;;;;5024756;28;20041;-80
2021/03/22 04:20:28;;;;;;;4.53;2.63;;;7.30;72.40;;;;;;5038057;28;20102;-79
2021/03/22 04:22:54;;;;;;;3.45;2.53;;;7.30;72.40;;;;;;5032061;28;20028;-80
2021/03/22 04:25:20;;;;;;;4.30;2.38;;;7.30;72.50;;;;;;5071852;28;20461;-81
2021/03/22 04:27:46;;;;;;;4.10;2.50;;;7.30;72.40;;;;;;5035840;28;20033;-79
2021/03/22 04:30:12;;;;;;;4.72;2.90;;;7.30;72.40;;;;;;5053828;28;20032;-80
2021/03/22 04:32:38;;;;;;;3.50;2.28;;;7.30;72.50;;;;;;5050053;28;20119;-82
2021/03/22 04:35:05;;;;;;;4.07;2.55;;;7.30;73.10;;;;;;5034158;28;20121;-81
2021/03/22 04:37:31;;;;;;;5.07;2.55;;;7.30;72.50;;;;;;5046731;28;20024;-80
2021/03/22 04:39:57;;;;;;;5.90;2.67;;;7.30;72.40;;;;;;5039921;28;20027;-81
2021/03/22 04:42:22;;;;;;;4.07;2.60;;;7.30;72.40;;;;;;5037403;28;20046;-79
2021/03/22 04:44:48;;;;;;;5.40;2.47;;;7.40;72.50;;;;;;5064901;28;20059;-80
2021/03/22 04:47:14;;;;;;;4.32;2.30;;;7.40;72.50;;;;;;5021838;28;20024;-80
2021/03/22 04:49:40;;;;;;;4.00;2.40;;;7.40;72.50;;;;;;5051356;28;20116;-80
2021/03/22 04:52:06;;;;;;;4.72;2.53;;;7.30;72.50;;;;;;5044717;28;20507;-80
2021/03/22 04:54:32;;;;;;;4.85;2.88;;;7.30;72.50;;;;;;5054795;28;20419;-81
2021/03/22 04:57:10;;;;;;;4.82;2.75;;;7.30;72.50;;;;;;5051071;28;20078;-80
2021/03/22 04:59:35;;;;;;;5.28;2.53;;;7.40;72.70;;;;;;5054344;28;20542;-81
2021/03/22 05:02:01;;;;;;;5.45;2.90;;;7.40;72.60;;;;;;5037506;28;20107;-80
2021/03/22 05:04:27;;;;;;;3.40;2.25;;;7.40;72.60;;;;;;5054640;28;20060;-81
2021/03/22 05:06:52;;;;;;;3.50;2.20;;;7.40;72.60;;;;;;5038076;28;20036;-80
2021/03/22 05:09:18;;;;;;;4.57;2.75;;;7.40;72.60;;;;;;5037643;28;20150;-80
2021/03/22 05:11:44;;;;;;;5.78;3.00;;;7.40;72.60;;;;;;5059569;28;20037;-80
2021/03/22 05:14:10;;;;;;;3.85;2.20;;;7.40;72.60;;;;;;5053855;28;20048;-80
2021/03/22 05:16:35;;;;;;;4.40;2.58;;;7.40;72.60;;;;;;5019515;28;20132;-80
2021/03/22 05:19:01;;;;;;;4.68;2.92;;;7.40;72.60;;;;;;5037794;28;20496;-79
2021/03/22 05:21:27;;;;;;;5.22;3.08;;;7.40;72.60;;;;;;5045419;28;20033;-79
2021/03/22 05:23:53;;;;;;;4.72;2.58;;;7.40;72.70;;;;;;5066213;28;20021;-79
2021/03/22 05:26:18;;;;;;;4.85;2.58;;;7.40;72.70;;;;;;5021214;28;20033;-80
2021/03/22 05:28:44;;;;;;;5.40;2.80;;;7.40;72.70;;;;;;5058001;28;20033;-79
2021/03/22 05:31:10;;;;;;;4.63;2.58;;;7.40;72.70;;;;;;5052074;28;20477;-80
2021/03/22 05:33:36;;;;;;;5.97;3.15;;;7.40;72.70;;;;;;5020892;28;20047;-79
2021/03/22 05:36:03;;;;;;;4.43;2.53;;;7.40;72.80;;;;;;5070635;28;20056;-79
2021/03/22 05:38:29;;;;;;;4.35;2.33;;;7.40;72.70;;;;;;5050792;28;20052;-79
2021/03/22 05:41:02;;;;;;;4.40;2.20;;;7.40;72.80;;;;;;5063570;28;20060;-80
2021/03/22 05:43:30;;;;;;;4.40;2.60;;;7.40;72.80;;;;;;5072263;28;20025;-78
2021/03/22 05:46:09;;;;;;;4.32;2.45;;;7.50;72.80;;;;;;5049263;28;20028;-78
2021/03/22 05:48:53;;;;;;;3.90;2.30;;;7.50;72.80;;;;;;5057529;28;20541;-87
2021/03/22 05:51:29;;;;;;;5.10;2.28;;;7.40;72.70;;;;;;5056953;28;20139;-79
2021/03/22 05:54:05;;;;;;;4.15;2.40;;;7.40;72.80;;;;;;5044937;28;20099;-85
2021/03/22 05:56:59;;;;;;;4.68;2.70;;;7.50;72.90;;;;;;5056068;28;20060;-78
2021/03/22 05:59:50;;;;;;;5.03;2.72;;;7.40;73.00;;;;;;5057901;28;20019;-79
2021/03/22 06:02:56;;;;;;;4.93;2.17;;;7.50;72.90;;;;;;5072790;28;20057;-77
2021/03/22 06:05:40;;;;;;;;;;;7.50;73.00;;;;;;5088310;28;20025;-78
2021/03/22 06:08:31;;;;;;;4.13;1.90;;;7.50;72.80;;;;;;5072929;28;19916;-78
2021/03/22 06:11:01;;;;;;;3.03;2.00;;;7.40;72.80;;;;;;5048529;28;20040;-78
2021/03/22 06:13:33;;;;;;;4.05;2.53;;;7.40;72.90;;;;;;5065622;28;20033;-78
2021/03/22 06:16:13;;;;;;;4.00;2.28;;;7.50;73.10;;;;;;5070846;28;20025;-79
2021/03/22 06:18:52;;;;;;;3.75;2.17;;;7.40;73.00;;;;;;5055882;28;20028;-78
2021/03/22 06:21:18;;;;;;;4.93;2.20;;;7.50;73.10;;;;;;5056814;28;20028;-80
2021/03/22 06:23:46;;;;;;;3.67;2.20;;;7.50;73.10;;;;;;5056644;28;20062;-78
2021/03/22 06:26:18;;;;;;;2.65;1.95;;;7.50;73.20;;;;;;5067454;28;20480;-82
2021/03/22 06:28:47;;;;;;;4.05;2.30;;;7.50;73.10;;;;;;5064361;28;20029;-80
2021/03/22 06:31:18;;;;;;;3.78;2.45;;;7.50;73.10;;;;;;5052254;28;20032;-78
2021/03/22 06:33:46;;;;;;;2.85;2.30;;;7.60;73.20;;;;;;5073271;28;20032;-82
2021/03/22 06:36:15;;;;;;;3.90;2.03;;;7.50;73.10;;;;;;5056595;28;20020;-82
2021/03/22 06:38:48;;;;;;;2.72;1.92;;;7.60;73.20;;;;;;5065832;28;20108;-82
2021/03/22 06:41:31;;;;;;;3.75;2.10;;;7.60;73.20;;;;;;5070155;28;20036;-81
2021/03/22 06:43:59;;;;;;;3.60;2.38;;;7.60;73.30;;;;;;5073563;28;20111;-81
2021/03/22 06:46:27;;;;;;;4.72;2.00;;;7.60;73.20;;;;;;5073584;28;20365;-81
2021/03/22 06:49:06;;;;;;;2.63;1.92;;;7.60;73.20;;;;;;5057349;28;20028;-82
2021/03/22 06:51:32;;;;;;;2.72;2.00;;;7.60;73.30;;;;;;5073528;28;20033;-83
2021/03/22 06:54:00;;;;;;;2.17;1.90;;;7.60;73.20;;;;;;5057091;28;20379;-81
2021/03/22 06:56:33;;;;;;;4.30;2.10;;;7.60;73.20;;;;;;5056721;28;20036;-82
2021/03/22 06:59:14;;;;;;;3.35;2.03;;;7.60;73.20;;;;;;5073436;28;20111;-82
2021/03/22 07:01:42;;;;;;;2.60;1.90;;;7.70;73.30;;;;;;5073359;28;20034;-82
2021/03/22 07:04:26;;;;;;;3.33;1.95;;;7.60;73.20;;;;;;5072917;28;20035;-82
2021/03/22 07:07:17;;;;;;;3.03;1.83;;;7.70;73.30;;;;;;5070923;28;20487;-81
2021/03/22 07:09:53;;;;;;;3.08;1.83;;;7.70;73.40;;;;;;5040826;28;20083;-82
2021/03/22 07:12:35;;;;;;;2.28;1.60;;;7.70;73.30;;;;;;5040879;28;20142;-83
2021/03/22 07:15:14;;;;;;;1.98;1.80;;;7.70;73.40;;;;;;5059818;28;20029;-82
2021/03/22 07:17:40;;;;;;;3.00;1.80;;;7.70;73.40;;;;;;5067913;28;20045;-83
2021/03/22 07:20:16;;;;;;;3.55;1.90;;;7.70;73.30;;;;;;5039823;28;20078;-82
2021/03/22 07:22:42;;;;;;;2.38;1.80;;;7.80;73.40;;;;;;5074422;28;20079;-83
2021/03/22 07:25:35;;;;;;;3.08;1.80;;;7.70;73.40;;;;;;5073374;28;20021;-82
2021/03/22 07:28:29;;;;;;;2.58;1.75;;;7.80;73.50;;;;;;5044453;28;20025;-83
2021/03/22 07:31:27;;;;;;;2.28;1.63;;;7.80;73.40;;;;;;5016124;28;20044;-82
2021/03/22 07:34:17;;;;;;;3.78;1.90;;;7.80;73.40;;;;;;5056261;28;20078;-83
2021/03/22 07:36:46;;;;;;;3.95;1.90;;;7.80;73.40;;;;;;5045403;28;20031;-78
2021/03/22 07:39:32;;;;;;;1.65;1.50;;;7.90;73.40;;;;;;5071335;28;20526;-78
2021/03/22 07:42:02;;;;;;;2.55;1.60;;;7.90;73.60;;;;;;5059363;28;20024;-78
2021/03/22 07:44:33;;;;;;;1.75;1.50;;;7.90;73.50;;;;;;5073259;28;20107;-78
2021/03/22 07:47:22;;;;;;;2.63;1.77;;;7.90;73.50;;;;;;5071878;28;20100;-78
2021/03/22 07:50:15;;;;;;;4.30;1.90;;;7.90;73.70;;;;;;5070632;28;20052;-78
2021/03/22 07:52:43;;;;;;;2.17;1.60;;;7.90;73.60;;;;;;5068120;28;20033;-79
2021/03/22 07:55:43;;;;;;;3.25;1.73;;;7.90;73.50;;;;;;5067670;28;20024;-79
2021/03/22 07:58:33;;;;;;;2.22;1.50;;;7.90;73.70;;;;;;5063575;28;20028;-79
2021/03/22 08:01:02;;;;;;;2.13;1.48;;;8.00;73.60;;;;;;5046618;28;20025;-79
2021/03/22 08:03:50;;;;;;;2.08;1.60;;;8.00;73.60;;;;;;5065148;28;20025;-80
2021/03/22 08:06:35;;;;;;;2.47;1.48;;;8.00;73.70;;;;;;5065399;28;20064;-80
2021/03/22 08:09:19;;;;;;;2.30;1.48;;;8.00;73.60;;;;;;5062010;28;20021;-80
2021/03/22 08:11:55;;;;;;;1.73;1.30;;;8.10;73.80;;;;;;5060687;28;20036;-80
2021/03/22 08:14:35;;;;;;;1.45;1.33;;;8.00;73.60;;;;;;5067885;28;20032;-79
2021/03/22 08:17:31;;;;;;;2.30;1.42;;;8.10;73.90;;;;;;5070071;28;20502;-79
2021/03/22 08:20:20;;;;;;;1.55;1.45;;;8.10;73.90;;;;;;5071370;28;20068;-79
2021/03/22 08:22:59;;;;;;;1.67;1.17;;;8.10;73.80;;;;;;5065850;28;20505;-79
2021/03/22 08:25:34;;;;;;;2.10;1.30;;;8.20;73.90;;;;;;5051998;28;20050;-79
2021/03/22 08:28:05;;;;;;;1.60;1.38;;;8.20;73.90;;;;;;5064396;28;20017;-80
2021/03/22 08:30:47;;;;;;;1.95;1.30;;;8.20;73.80;;;;;;5064546;28;20031;-79
2021/03/22 08:33:35;;;;;;;3.65;1.60;;;8.20;73.90;;;;;;5069258;28;20032;-80
2021/03/22 08:36:04;;;;;;;2.25;1.40;;;8.20;73.90;;;;;;5058470;28;20107;-80
2021/03/22 08:38:42;;;;;;;1.48;1.38;;;8.30;73.80;;;;;;5052045;28;20153;-79
2021/03/22 08:41:32;;;;;;;1.30;1.20;;;8.30;73.90;;;;;;5070107;28;20024;-78
2021/03/22 08:44:33;;;;;;;1.52;1.15;;;8.30;73.90;;;;;;5042510;28;20166;-80
2021/03/22 08:47:06;;;;;;;1.38;1.25;;;8.30;73.90;;;;;;5063743;28;20111;-81
2021/03/22 08:49:56;;;;;;;1.40;1.30;;;8.40;73.80;;;;;;5058699;28;20024;-77
2021/03/22 08:52:50;;;;;;;1.65;1.27;;;8.40;74.00;;;;;;5042593;28;20029;-77
2021/03/22 08:55:19;;;;;;;1.20;1.10;;;8.40;73.90;;;;;;5052316;28;20029;-79
2021/03/22 08:57:58;;;;;;;1.30;1.20;;;8.40;73.80;;;;;;5049514;28;20028;-80
2021/03/22 09:00:40;;;;;;;1.55;1.45;;;8.50;73.90;;;;;;5067454;28;20040;-82
2021/03/22 09:03:20;;;;;;;1.58;1.20;;;8.50;73.90;;;;;;5051347;28;20031;-81
2021/03/22 09:06:07;;;;;;;1.40;1.30;;;8.50;73.80;;;;;;5058939;28;20105;-80
2021/03/22 09:08:40;;;;;;;1.60;1.25;;;8.60;73.90;;;;;;5070431;28;20112;-80
2021/03/22 09:11:33;;;;;;;1.40;1.20;;;8.60;73.70;;;;;;5065035;28;20055;-80
2021/03/22 09:14:00;;;;;;;1.77;1.20;;;8.60;73.80;;;;;;5070306;28;20024;-80
2021/03/22 09:16:41;;;;;;;1.55;1.20;;;8.70;73.70;;;;;;5051769;28;20519;-78
2021/03/22 09:21:37;;;;;;;2.22;1.20;;;8.80;73.70;;;;;;5036691;28;20059;-80
2021/03/22 09:24:24;;;;;;;2.70;1.50;;;8.80;73.70;;;;;;5021643;28;20031;-79
2021/03/22 09:26:59;;;;;;;1.75;1.17;;;8.80;73.70;;;;;;5037971;28;20150;-82
2021/03/22 09:29:31;;;;;;;1.65;1.38;;;8.90;73.70;;;;;;5034740;28;20063;-83
2021/03/22 09:31:58;;;;;;;1.75;1.30;;;9.00;73.70;;;;;;5038243;28;20033;-79
2021/03/22 09:34:38;;;;;;;2.30;1.52;;;9.00;73.70;;;;;;5021837;28;20060;-80
2021/03/22 09:37:41;;;;;;;2.13;1.25;;;9.10;73.80;;;;;;5034471;28;20136;-79
2021/03/22 09:40:12;;;;;;;1.40;1.30;;;9.10;73.80;;;;;;5055165;28;20070;-80
2021/03/22 09:42:38;;;;;;;2.45;1.48;;;9.20;73.70;;;;;;5037752;28;20087;-79
2021/03/22 09:45:17;;;;;;;1.63;1.40;;;9.20;73.70;;;;;;5021208;28;20012;-80
2021/03/22 09:47:43;;;;;;;1.83;1.33;;;9.20;73.80;;;;;;5037301;28;20029;-79
2021/03/22 09:50:15;;;;;;;1.80;1.38;;;9.20;73.60;;;;;;5018165;28;20021;-80
2021/03/22 09:52:50;;;;;;;1.92;1.27;;;9.30;73.70;;;;;;5046375;28;20033;-80
2021/03/22 09:55:28;;;;;;;1.88;1.23;;;9.30;73.70;;;;;;5025639;28;20061;-80
2021/03/22 09:57:57;;;;;;;1.60;1.45;;;9.40;73.80;;;;;;5037904;28;20103;-80
2021/03/22 10:00:35;;;;;;;2.10;1.30;;;9.40;73.70;;;;;;5035306;28;20028;-80
2021/03/22 10:03:28;;;;;;;2.55;1.35;;;9.40;73.80;;;;;;5037531;28;20120;-79
2021/03/22 10:05:58;;;;;;;3.13;1.40;;;9.40;73.80;;;;;;5022209;28;20033;-80
2021/03/22 10:08:34;;;;;;;1.40;1.30;;;9.50;74.30;;;;;;5031686;28;20488;-81
2021/03/22 10:11:06;;;;;;;1.75;1.30;;;9.50;73.70;;;;;;5021185;28;20469;-79
2021/03/22 10:13:44;;;;;;;3.05;1.60;;;9.50;73.70;;;;;;5040768;28;20038;-80
2021/03/22 10:16:21;;;;;;;2.70;1.55;;;9.50;73.80;;;;;;5025471;28;20025;-80
2021/03/22 10:19:04;;;;;;;1.85;1.30;;;9.60;73.80;;;;;;5021053;28;20053;-82
2021/03/22 10:21:30;;;;;;;1.83;1.40;;;9.60;73.70;;;;;;5055003;28;20523;-82
2021/03/22 10:24:19;;;;;;;1.77;1.38;;;9.60;73.70;;;;;;5034928;28;20025;-82
2021/03/22 10:26:48;;;;;;;1.27;1.17;;;9.70;73.80;;;;;;5046769;28;20056;-81
2021/03/22 10:29:19;;;;;;;1.48;1.17;;;9.70;73.70;;;;;;5036960;28;20052;-80
2021/03/22 10:31:48;;;;;;;1.60;1.50;;;9.70;73.80;;;;;;5021103;28;20091;-80
2021/03/22 10:34:32;;;;;;;3.28;1.67;;;9.80;73.80;;;;;;5030359;28;20017;-79
2021/03/22 10:37:17;;;;;;;2.17;1.30;;;9.80;73.90;;;;;;5055242;28;20029;-80
2021/03/22 10:39:47;;;;;;;1.40;1.30;;;9.90;73.80;;;;;;5039713;28;20092;-80
2021/03/22 10:42:25;;;;;;;1.60;1.20;;;9.90;73.70;;;;;;5055243;28;20037;-79
2021/03/22 10:44:51;;;;;;;2.03;1.40;;;9.90;73.80;;;;;;5036796;28;20052;-80
2021/03/22 10:47:19;;;;;;;1.75;1.20;;;10.00;73.80;;;;;;5004236;28;20040;-80
2021/03/22 10:49:47;;;;;;;1.30;1.20;;;10.00;73.80;;;;;;5016875;28;20029;-80
2021/03/22 10:52:30;;;;;;;1.20;1.10;;;10.00;73.70;;;;;;5017167;28;20025;-79
2021/03/22 10:54:57;;;;;;;1.35;1.10;;;10.00;73.80;;;;;;5049517;28;20480;-80
2021/03/22 10:57:34;;;;;;;2.15;1.42;;;10.10;73.70;;;;;;5036928;28;20017;-80
2021/03/22 11:00:23;;;;;;;1.40;1.30;;;10.10;73.80;;;;;;5038115;28;20025;-81
2021/03/22 11:02:51;;;;;;;1.30;1.20;;;10.10;73.70;;;;;;5048038;28;20037;-79
2021/03/22 11:05:19;;;;;;;1.38;1.27;;;10.20;73.70;;;;;;5017564;28;20036;-79
2021/03/22 11:07:57;;;;;;;2.08;1.10;;;10.20;73.70;;;;;;5025946;28;20056;-80
2021/03/22 11:10:24;;;;;;;1.25;1.15;;;10.20;73.70;;;;;;5020820;28;20016;-79
2021/03/22 11:12:51;;;;;;;1.20;1.10;;;10.30;73.60;;;;;;5020696;28;20072;-79
2021/03/22 11:15:37;;;;;;;1.27;1.08;;;10.30;73.70;;;;;;5040686;28;20036;-79
2021/03/22 11:18:07;;;;;;;1.35;1.00;;;10.30;73.70;;;;;;5054417;28;20142;-79
2021/03/22 11:20:33;;;;;;;1.80;1.15;;;10.30;73.60;;;;;;5033112;28;20611;-79
2021/03/22 11:23:26;;;;;;;1.23;1.10;;;10.40;73.60;;;;;;5016481;28;20104;-79
2021/03/22 11:25:57;;;;;;;2.60;1.50;;;10.40;73.70;;;;;;5028871;28;20021;-80
2021/03/22 11:28:24;;;;;;;4.20;1.10;;;10.40;73.50;;;;;;5046501;28;20048;-78
2021/03/22 11:30:49;;;;;;;1.77;1.10;;;10.50;73.50;;;;;;5003150;28;20072;-75
2021/03/22 11:33:15;;;;;;;0.93;0.93;;;10.50;73.50;;;;;;5052099;28;20056;-77
2021/03/22 11:35:44;;;;;;;0.80;0.80;;;10.50;73.40;;;;;;5034706;28;20032;-78
2021/03/22 11:38:24;;;;;;;1.05;1.02;;;10.60;73.40;;;;;;5033043;28;20484;-76
2021/03/22 11:40:56;;;;;;;1.73;1.20;;;10.60;73.40;;;;;;5034363;28;20090;-77
2021/03/22 11:43:37;;;;;;;1.20;0.93;;;10.60;73.30;;;;;;5022570;28;20029;-76
2021/03/22 11:46:24;;;;;;;1.25;1.10;;;10.60;73.30;;;;;;5018191;28;20025;-77
2021/03/22 11:48:50;;;;;;;0.90;0.90;;;10.70;73.40;;;;;;5022676;28;20021;-77
2021/03/22 11:51:16;;;;;;;1.15;1.10;;;10.70;73.20;;;;;;5053285;28;20037;-77
2021/03/22 11:54:07;;;;;;;1.30;0.98;;;10.70;73.20;;;;;;5034876;28;20037;-78
2021/03/22 11:56:36;;;;;;;1.70;1.00;;;10.70;73.30;;;;;;5035010;28;20454;-78
2021/03/22 11:59:23;;;;;;;0.80;0.80;;;10.80;73.20;;;;;;5044599;28;20039;-78
2021/03/22 12:02:14;;;;;;;0.93;0.93;;;10.80;73.20;;;;;;5036956;28;20028;-78
2021/03/22 12:04:52;;;;;;;1.10;1.00;;;10.80;73.20;;;;;;5018780;28;20367;-77
2021/03/22 12:07:36;;;;;;;1.00;1.00;;;10.80;73.10;;;;;;5051700;28;20112;-77
2021/03/22 12:10:02;;;;;;;1.30;1.20;;;10.80;73.10;;;;;;5021273;28;20028;-76
2021/03/22 12:12:28;;;;;;;1.35;1.25;;;10.80;73.10;;;;;;5034665;28;20442;-76
2021/03/22 12:14:54;;;;;;;0.98;0.98;;;10.90;73.10;;;;;;5033786;28;20124;-80
2021/03/22 12:17:28;;;;;;;1.80;1.20;;;10.90;73.10;;;;;;5016448;28;20542;-79
2021/03/22 12:19:55;;;;;;;1.48;1.00;;;10.90;73.10;;;;;;5072555;28;20047;-79
2021/03/22 12:22:23;;;;;;;1.20;1.10;;;10.90;73.00;;;;;;5053513;28;20040;-79
2021/03/22 12:24:50;;;;;;;1.35;1.10;;;10.90;72.90;;;;;;5051421;28;20024;-78
2021/03/22 12:27:19;;;;;;;1.30;1.20;;;11.00;72.90;;;;;;5059780;28;20070;-78
2021/03/22 12:29:45;;;;;;;1.17;0.90;;;11.00;72.90;;;;;;5064609;28;20031;-78
2021/03/22 12:32:16;;;;;;;1.13;1.02;;;11.00;72.90;;;;;;5043533;28;20060;-79
2021/03/22 12:34:42;;;;;;;1.38;1.17;;;11.00;72.90;;;;;;5071340;28;20082;-78
2021/03/22 12:37:22;;;;;;;1.45;0.93;;;11.10;72.90;;;;;;5068170;28;20017;-77
2021/03/22 12:39:47;;;;;;;1.10;1.00;;;11.10;72.90;;;;;;5067591;28;20049;-78
2021/03/22 12:42:14;;;;;;;1.60;1.08;;;11.10;72.80;;;;;;5069678;28;20438;-76
2021/03/22 12:44:41;;;;;;;2.08;1.10;;;11.10;72.80;;;;;;5053654;28;20124;-78
2021/03/22 12:47:15;;;;;;;1.25;1.10;;;11.10;72.80;;;;;;5054118;28;20062;-77
2021/03/22 12:49:41;;;;;;;1.00;1.00;;;11.10;72.80;;;;;;5066954;28;20036;-78
2021/03/22 12:52:07;;;;;;;1.55;1.20;;;11.20;72.80;;;;;;5037275;28;20370;-77
2021/03/22 12:54:32;;;;;;;1.30;1.10;;;11.20;72.70;;;;;;5036095;28;20036;-78
2021/03/22 12:56:58;;;;;;;1.65;1.10;;;11.20;72.70;;;;;;5041515;28;20028;-77
2021/03/22 12:59:32;;;;;;;1.10;1.00;;;11.30;72.70;;;;;;5051881;28;20392;-78
2021/03/22 13:02:00;;;;;;;1.25;1.15;;;11.30;72.70;;;;;;5053839;28;20024;-77
2021/03/22 13:04:26;;;;;;;1.20;0.90;;;11.30;72.60;;;;;;5050441;28;20140;-77
2021/03/22 13:06:52;;;;;;;1.20;1.10;;;11.40;72.60;;;;;;5033697;28;20047;-78
2021/03/22 13:09:17;;;;;;;1.10;1.00;;;11.40;72.60;;;;;;5049199;28;20462;-77
2021/03/22 13:11:43;;;;;;;1.13;1.00;;;11.40;72.60;;;;;;5064007;28;20071;-78
2021/03/22 13:14:19;;;;;;;2.58;1.20;;;11.50;72.60;;;;;;5059122;28;20036;-77
2021/03/22 13:16:45;;;;;;;1.40;1.10;;;11.50;72.60;;;;;;5053901;28;20174;-77
2021/03/22 13:19:12;;;;;;;0.90;0.90;;;11.50;72.50;;;;;;5050544;28;20036;-78
2021/03/22 13:21:39;;;;;;;1.00;1.00;;;11.50;72.50;;;;;;5062783;28;20037;-77
2021/03/22 13:24:05;;;;;;;1.10;1.00;;;11.60;72.50;;;;;;5053622;28;20047;-77
2021/03/22 13:26:31;;;;;;;1.13;0.90;;;11.60;72.50;;;;;;5036245;28;20487;-77
2021/03/22 13:28:57;;;;;;;0.98;0.90;;;11.60;72.50;;;;;;5048512;28;20061;-77